createdAt,value
2019-03-09T00:04:19.851Z,6.28
2019-03-09T00:09:25.896Z,6.33
2019-03-09T00:14:31.459Z,6.49
2019-03-09T00:19:37.000Z,6.58
2019-03-09T00:25:01.609Z,6.55
2019-03-09T00:30:30.429Z,6.64
2019-03-09T00:35:37.707Z,6.67
2019-03-09T00:40:45.111Z,6.84
2019-03-09T00:45:53.903Z,6.96
2019-03-09T00:50:59.516Z,6.92
2019-03-09T00:56:06.811Z,6.89
2019-03-09T01:01:12.346Z,7.00
2019-03-09T01:06:18.223Z,7.05
2019-03-09T01:11:26.598Z,7.22
2019-03-09T01:16:32.123Z,7.08
2019-03-09T01:21:37.664Z,7.05
2019-03-09T01:26:43.659Z,7.07
2019-03-09T01:31:49.103Z,6.92
2019-03-09T01:36:54.577Z,7.06
2019-03-09T01:42:00.294Z,6.80
2019-03-09T01:47:08.836Z,6.80
2019-03-09T01:52:15.727Z,6.82
2019-03-09T01:57:21.747Z,6.81
2019-03-09T02:02:27.184Z,6.91
2019-03-09T02:07:33.039Z,6.72
2019-03-09T02:12:38.852Z,6.79
2019-03-09T02:17:44.500Z,6.87
2019-03-09T02:22:50.317Z,6.75
2019-03-09T02:27:55.879Z,7.12
2019-03-09T02:33:01.366Z,6.80
2019-03-09T02:38:38.363Z,6.94
2019-03-09T02:43:43.901Z,6.82
2019-03-09T02:48:50.823Z,6.90
2019-03-09T02:53:56.329Z,6.90
2019-03-09T02:59:06.812Z,6.74
2019-03-09T03:04:12.657Z,6.64
2019-03-09T03:09:21.055Z,6.70
2019-03-09T03:14:27.076Z,6.66
2019-03-09T03:19:32.903Z,6.64
2019-03-09T03:24:38.760Z,6.92
2019-03-09T03:29:44.860Z,6.89
2019-03-09T03:34:59.284Z,6.89
2019-03-09T03:40:29.776Z,6.64
2019-03-09T03:45:35.871Z,6.67
2019-03-09T03:50:52.804Z,6.63
2019-03-09T03:55:59.292Z,6.46
2019-03-09T04:01:07.377Z,6.46
2019-03-09T04:06:16.852Z,6.51
2019-03-09T04:11:22.699Z,6.55
2019-03-09T04:16:28.606Z,6.59
2019-03-09T04:21:34.120Z,6.55
2019-03-09T04:26:39.765Z,6.60
2019-03-09T04:31:45.603Z,6.60
2019-03-09T04:37:01.191Z,6.61
2019-03-09T04:42:09.472Z,6.71
2019-03-09T04:47:15.314Z,6.65
2019-03-09T04:52:21.085Z,6.68
2019-03-09T04:57:27.367Z,6.76
2019-03-09T05:02:33.163Z,6.88
2019-03-09T05:08:13.739Z,6.90
2019-03-09T05:13:26.030Z,7.00
2019-03-09T05:18:32.148Z,6.99
2019-03-09T05:23:37.869Z,6.97
2019-03-09T05:28:43.331Z,7.04
2019-03-09T05:33:49.557Z,7.03
2019-03-09T05:38:56.074Z,7.11
2019-03-09T05:44:05.008Z,7.15
2019-03-09T05:49:10.756Z,7.18
2019-03-09T05:54:18.056Z,7.23
2019-03-09T05:59:23.704Z,7.29
2019-03-09T06:04:29.226Z,7.28
2019-03-09T06:09:35.400Z,7.24
2019-03-09T06:14:41.044Z,7.06
2019-03-09T06:19:46.809Z,7.00
2019-03-09T06:24:52.673Z,6.93
2019-03-09T06:29:58.136Z,6.93
2019-03-09T06:35:07.008Z,6.75
2019-03-09T06:40:12.664Z,6.75
2019-03-09T06:45:19.720Z,6.66
2019-03-09T06:50:25.772Z,6.66
2019-03-09T06:55:31.665Z,6.69
2019-03-09T07:00:43.172Z,6.55
2019-03-09T07:05:49.179Z,6.55
2019-03-09T07:10:55.240Z,6.44
2019-03-09T07:16:03.959Z,6.46
2019-03-09T07:21:10.096Z,6.64
2019-03-09T07:26:16.683Z,6.42
2019-03-09T07:31:22.247Z,6.42
2019-03-09T07:36:28.355Z,6.37
2019-03-09T07:41:34.218Z,6.33
2019-03-09T07:46:40.021Z,6.40
2019-03-09T07:51:45.858Z,6.31
2019-03-09T07:56:51.255Z,6.31
2019-03-09T08:01:56.911Z,6.56
2019-03-09T08:07:04.535Z,6.91
2019-03-09T08:12:10.454Z,6.86
2019-03-09T08:17:17.698Z,6.90
2019-03-09T08:22:23.588Z,7.27
2019-03-09T08:27:29.295Z,7.53
2019-03-09T08:32:34.926Z,7.86
2019-03-09T08:37:41.715Z,8.01
2019-03-09T08:42:47.785Z,8.74
2019-03-09T08:47:54.488Z,8.57
2019-03-09T08:53:02.818Z,9.29
2019-03-09T08:58:13.104Z,9.16
2019-03-09T09:03:18.799Z,8.83
2019-03-09T09:08:24.957Z,9.95
2019-03-09T09:13:30.508Z,10.11
2019-03-09T09:18:36.033Z,10.11
2019-03-09T09:23:44.332Z,10.41
2019-03-09T09:28:50.228Z,10.10
2019-03-09T09:33:58.360Z,10.39
2019-03-09T09:39:20.051Z,10.81
2019-03-09T09:44:25.990Z,10.65
2019-03-09T09:49:31.889Z,10.35
2019-03-09T09:54:38.077Z,10.83
2019-03-09T09:59:45.537Z,10.89
2019-03-09T10:04:53.455Z,10.54
2019-03-09T10:09:59.661Z,10.77
2019-03-09T10:15:09.384Z,10.88
2019-03-09T10:20:14.970Z,11.15
2019-03-09T10:25:22.338Z,11.18
2019-03-09T10:30:47.729Z,11.20
2019-03-09T10:35:54.971Z,11.32
2019-03-09T10:41:00.602Z,11.47
2019-03-09T10:46:08.078Z,11.29
2019-03-09T10:51:14.152Z,11.26
2019-03-09T10:56:19.778Z,11.92
2019-03-09T11:01:25.410Z,11.72
2019-03-09T11:06:31.298Z,11.84
2019-03-09T11:11:37.935Z,11.82
2019-03-09T11:16:44.088Z,12.12
2019-03-09T11:21:50.432Z,11.89
2019-03-09T11:26:56.448Z,11.87
2019-03-09T11:32:03.526Z,12.04
2019-03-09T11:37:09.196Z,12.22
2019-03-09T11:42:15.170Z,11.88
2019-03-09T11:47:26.562Z,12.21
2019-03-09T11:52:32.278Z,12.18
2019-03-09T11:57:37.951Z,12.21
2019-03-09T12:02:43.668Z,12.54
2019-03-09T12:07:51.990Z,12.25
2019-03-09T12:12:58.491Z,12.22
2019-03-09T12:18:07.104Z,12.36
2019-03-09T12:23:24.113Z,12.33
2019-03-09T12:28:31.850Z,12.25
2019-03-09T12:33:37.907Z,12.17
2019-03-09T12:38:48.832Z,11.69
2019-03-09T12:43:54.668Z,11.21
2019-03-09T12:49:03.828Z,11.29
2019-03-09T12:54:10.197Z,11.37
2019-03-09T12:59:15.938Z,11.10
2019-03-09T13:04:21.842Z,11.22
2019-03-09T13:09:27.905Z,10.88
2019-03-09T13:14:36.425Z,10.96
2019-03-09T13:19:42.526Z,10.68
2019-03-09T13:24:48.618Z,10.79
2019-03-09T13:29:59.355Z,10.97
2019-03-09T13:35:05.288Z,10.93
2019-03-09T13:40:12.089Z,11.19
2019-03-09T13:45:21.036Z,11.27
2019-03-09T13:50:28.954Z,11.18
2019-03-09T13:55:34.749Z,10.95
2019-03-09T14:00:41.071Z,11.19
2019-03-09T14:05:47.164Z,11.10
2019-03-09T14:10:53.410Z,10.91
2019-03-09T14:16:00.638Z,11.07
2019-03-09T14:21:07.939Z,11.15
2019-03-09T14:26:15.000Z,10.98
2019-03-09T14:31:21.482Z,10.89
2019-03-09T14:36:29.293Z,10.60
2019-03-09T14:41:35.121Z,10.74
2019-03-09T14:46:41.870Z,10.69
2019-03-09T14:51:49.513Z,10.67
2019-03-09T14:56:55.814Z,10.78
2019-03-09T15:02:02.417Z,10.99
2019-03-09T15:07:10.097Z,10.76
2019-03-09T15:12:18.217Z,10.63
2019-03-09T15:17:24.384Z,10.71
2019-03-09T15:22:30.084Z,10.65
2019-03-09T15:27:37.262Z,10.70
2019-03-09T15:32:43.172Z,10.75
2019-03-09T15:37:48.907Z,10.61
2019-03-09T15:42:55.726Z,10.82
2019-03-09T15:48:05.221Z,10.95
2019-03-09T15:53:12.342Z,11.02
2019-03-09T15:58:18.624Z,10.99
2019-03-09T16:03:27.039Z,11.03
2019-03-09T16:08:35.925Z,10.99
2019-03-09T16:13:42.244Z,10.92
2019-03-09T16:18:50.508Z,10.61
2019-03-09T16:23:56.966Z,10.69
2019-03-09T16:29:03.079Z,10.45
2019-03-09T16:34:10.106Z,10.29
2019-03-09T16:39:17.011Z,10.02
2019-03-09T16:44:22.880Z,9.99
2019-03-09T16:49:28.949Z,9.89
2019-03-09T16:54:37.225Z,9.77
2019-03-09T16:59:44.388Z,9.72
2019-03-09T17:11:14.876Z,9.88
2019-03-09T17:16:24.062Z,9.84
2019-03-09T17:21:30.101Z,9.87
2019-03-09T17:26:37.054Z,9.85
2019-03-09T17:31:43.122Z,9.94
2019-03-09T17:36:53.748Z,9.95
2019-03-09T17:42:24.666Z,10.02
2019-03-09T17:47:43.915Z,10.10
2019-03-09T17:52:53.525Z,10.11
2019-03-09T17:57:59.292Z,9.99
2019-03-09T18:03:09.893Z,9.80
2019-03-09T18:08:15.637Z,9.68
2019-03-09T18:13:25.021Z,9.63
2019-03-09T18:18:33.820Z,9.76
2019-03-09T18:23:41.673Z,9.63
2019-03-09T18:28:49.469Z,9.44
2019-03-09T18:33:58.523Z,9.40
2019-03-09T18:39:08.775Z,9.45
2019-03-09T18:44:17.492Z,9.46
2019-03-09T18:49:28.117Z,9.07
2019-03-09T18:54:35.666Z,9.04
2019-03-09T18:59:45.181Z,8.98
2019-03-09T19:04:53.605Z,9.05
2019-03-09T19:10:08.217Z,8.96
2019-03-09T19:15:21.739Z,9.00
2019-03-09T19:20:29.472Z,8.88
2019-03-09T19:25:36.069Z,9.02
2019-03-09T19:30:42.234Z,8.74
2019-03-09T19:35:52.801Z,8.41
2019-03-09T19:41:03.227Z,8.34
2019-03-09T19:46:20.070Z,8.25
2019-03-09T19:51:29.584Z,8.00
2019-03-09T19:56:38.632Z,7.89
2019-03-09T20:01:51.934Z,7.72
2019-03-09T20:06:58.635Z,7.76
2019-03-09T20:12:14.753Z,7.77
2019-03-09T20:17:33.738Z,7.69
2019-03-09T20:22:56.234Z,7.70
2019-03-09T20:28:21.094Z,7.57
2019-03-09T20:33:27.247Z,7.48
2019-03-09T20:38:34.328Z,7.43
2019-03-09T20:43:43.527Z,7.59
2019-03-09T20:48:55.005Z,7.50
2019-03-09T20:54:03.837Z,7.68
2019-03-09T20:59:15.116Z,7.50
2019-03-09T21:04:23.693Z,7.40
2019-03-09T21:09:37.180Z,7.27
2019-03-09T21:14:46.089Z,7.21
2019-03-09T21:19:53.958Z,7.26
2019-03-09T21:25:03.957Z,7.09
2019-03-09T21:30:21.457Z,7.13
2019-03-09T21:35:29.755Z,6.98
2019-03-09T21:40:36.559Z,6.77
2019-03-09T21:45:45.748Z,6.71
2019-03-09T21:50:52.592Z,6.61
2019-03-09T21:56:03.618Z,6.63
2019-03-09T22:01:53.582Z,6.59
2019-03-09T22:06:44.069Z,6.35
2019-03-09T22:11:50.098Z,6.39
2019-03-09T22:16:57.647Z,6.35
2019-03-09T22:22:17.206Z,6.23
2019-03-09T22:27:25.860Z,6.23
2019-03-09T22:32:38.305Z,6.19
2019-03-09T22:37:44.177Z,6.15
2019-03-09T22:42:51.135Z,5.98
2019-03-09T22:47:58.052Z,5.98
2019-03-09T22:53:06.816Z,5.97
2019-03-09T22:58:13.543Z,6.09
2019-03-09T23:03:20.291Z,5.99
2019-03-09T23:08:26.329Z,6.02
2019-03-09T23:13:32.044Z,6.12
2019-03-09T23:18:37.930Z,5.84
2019-03-09T23:23:47.238Z,5.70
2019-03-09T23:28:53.240Z,5.70
2019-03-09T23:33:59.268Z,5.75
2019-03-09T23:39:10.129Z,5.67
2019-03-09T23:44:16.319Z,5.73
2019-03-09T23:49:21.940Z,5.68
2019-03-09T23:54:27.505Z,5.80
2019-03-09T23:59:33.480Z,5.71
